La Manga del Mar Menor, Spain
Current Conditions -  °F | °C
As of 3:00 PM on Sunday 25 Jan 2015 (Local Time) from LELC Reporting Station
Clear Clear  
Wind Chill: 61°   Ceiling: Unl
Heat Index: 61°   Visibility: 6mi
Dew Point: 37°   Wind: 3mph
Humidity: 42%   Direction: 120°ESE
Pressure: 30.18"   Gusts: NA
Location:  37.64°N, 0.72°W
Report Text: LELC 251400Z 12003KT 060V160 CAVOK 16/03 Q1022 NOSIG
Loading
Personal Weather Stations






























Interactive Weather Map New forecast layout! Learn more

10-Day Weather Forecast

Advertisements
Track Severe Weather on mobile